sensor_id;sensor_type;location;lat;lon;timestamp;temperature;humidity
4279;DHT22;2153;47.744;10.580;2022-12-07T00:02:27;0.30;99.90
4279;DHT22;2153;47.744;10.580;2022-12-07T00:04:54;0.30;99.90
4279;DHT22;2153;47.744;10.580;2022-12-07T00:07:21;0.30;99.90
4279;DHT22;2153;47.744;10.580;2022-12-07T00:09:48;0.30;99.90
4279;DHT22;2153;47.744;10.580;2022-12-07T00:12:14;0.30;99.90
4279;DHT22;2153;47.744;10.580;2022-12-07T00:14:41;0.30;99.90
4279;DHT22;2153;47.744;10.580;2022-12-07T00:17:08;0.20;99.90
4279;DHT22;2153;47.744;10.580;2022-12-07T00:19:36;0.20;99.90
4279;DHT22;2153;47.744;10.580;2022-12-07T00:22:03;0.20;99.90
4279;DHT22;2153;47.744;10.580;2022-12-07T00:24:29;0.20;99.90
4279;DHT22;2153;47.744;10.580;2022-12-07T00:26:56;0.20;99.90
4279;DHT22;2153;47.744;10.580;2022-12-07T00:29:23;0.20;99.90
4279;DHT22;2153;47.744;10.580;2022-12-07T00:31:50;0.20;99.90
4279;DHT22;2153;47.744;10.580;2022-12-07T00:34:18;0.30;99.90
4279;DHT22;2153;47.744;10.580;2022-12-07T00:36:47;0.30;99.90
4279;DHT22;2153;47.744;10.580;2022-12-07T00:39:14;0.30;99.90
4279;DHT22;2153;47.744;10.580;2022-12-07T00:41:41;0.30;99.90
4279;DHT22;2153;47.744;10.580;2022-12-07T00:44:07;0.30;99.90
4279;DHT22;2153;47.744;10.580;2022-12-07T00:46:34;0.30;99.90
4279;DHT22;2153;47.744;10.580;2022-12-07T00:49:01;0.30;99.90
4279;DHT22;2153;47.744;10.580;2022-12-07T00:51:28;0.30;99.90
4279;DHT22;2153;47.744;10.580;2022-12-07T00:53:56;0.30;99.90
4279;DHT22;2153;47.744;10.580;2022-12-07T00:56:24;0.30;99.90
4279;DHT22;2153;47.744;10.580;2022-12-07T00:58:52;0.30;99.90
4279;DHT22;2153;47.744;10.580;2022-12-07T01:01:19;0.30;99.90
4279;DHT22;2153;47.744;10.580;2022-12-07T01:03:46;0.30;99.90
4279;DHT22;2153;47.744;10.580;2022-12-07T01:06:15;0.30;99.90
4279;DHT22;2153;47.744;10.580;2022-12-07T01:08:42;0.30;99.90
4279;DHT22;2153;47.744;10.580;2022-12-07T01:11:13;0.40;99.90
4279;DHT22;2153;47.744;10.580;2022-12-07T01:13:40;0.40;99.90
4279;DHT22;2153;47.744;10.580;2022-12-07T01:16:08;0.40;99.90
4279;DHT22;2153;47.744;10.580;2022-12-07T01:18:36;0.40;99.90
4279;DHT22;2153;47.744;10.580;2022-12-07T01:21:05;0.40;99.90
4279;DHT22;2153;47.744;10.580;2022-12-07T01:23:33;0.40;99.90
4279;DHT22;2153;47.744;10.580;2022-12-07T01:26:03;0.40;99.90
4279;DHT22;2153;47.744;10.580;2022-12-07T01:28:32;0.50;99.90
4279;DHT22;2153;47.744;10.580;2022-12-07T01:31:01;0.50;99.90
4279;DHT22;2153;47.744;10.580;2022-12-07T01:33:29;0.50;99.90
4279;DHT22;2153;47.744;10.580;2022-12-07T01:36:01;0.50;99.90
4279;DHT22;2153;47.744;10.580;2022-12-07T01:38:28;0.50;99.90
4279;DHT22;2153;47.744;10.580;2022-12-07T01:40:56;0.50;99.90
4279;DHT22;2153;47.744;10.580;2022-12-07T01:43:24;0.50;99.90
4279;DHT22;2153;47.744;10.580;2022-12-07T01:45:53;0.50;99.90
4279;DHT22;2153;47.744;10.580;2022-12-07T01:48:23;0.50;99.90
4279;DHT22;2153;47.744;10.580;2022-12-07T01:50:53;0.50;99.90
4279;DHT22;2153;47.744;10.580;2022-12-07T01:53:21;0.50;99.90
4279;DHT22;2153;47.744;10.580;2022-12-07T01:55:52;0.50;99.90
4279;DHT22;2153;47.744;10.580;2022-12-07T01:58:20;0.50;99.90
4279;DHT22;2153;47.744;10.580;2022-12-07T02:00:47;0.50;99.90
4279;DHT22;2153;47.744;10.580;2022-12-07T02:03:18;0.60;99.90
4279;DHT22;2153;47.744;10.580;2022-12-07T02:05:47;0.50;99.90
4279;DHT22;2153;47.744;10.580;2022-12-07T02:08:14;0.60;99.90
4279;DHT22;2153;47.744;10.580;2022-12-07T02:10:41;0.50;99.90
4279;DHT22;2153;47.744;10.580;2022-12-07T02:13:11;0.50;99.90
4279;DHT22;2153;47.744;10.580;2022-12-07T02:18:38;0.60;99.90
4279;DHT22;2153;47.744;10.580;2022-12-07T02:21:11;0.50;99.90
4279;DHT22;2153;47.744;10.580;2022-12-07T02:23:46;0.60;99.90
4279;DHT22;2153;47.744;10.580;2022-12-07T02:29:14;0.60;99.90
4279;DHT22;2153;47.744;10.580;2022-12-07T02:31:46;0.50;99.90
4279;DHT22;2153;47.744;10.580;2022-12-07T02:34:20;0.60;99.90
4279;DHT22;2153;47.744;10.580;2022-12-07T02:36:54;0.50;99.90
4279;DHT22;2153;47.744;10.580;2022-12-07T02:39:28;0.50;99.90
4279;DHT22;2153;47.744;10.580;2022-12-07T02:42:02;0.50;99.90
4279;DHT22;2153;47.744;10.580;2022-12-07T02:44:32;0.60;99.90
4279;DHT22;2153;47.744;10.580;2022-12-07T02:47:02;0.50;99.90
4279;DHT22;2153;47.744;10.580;2022-12-07T02:49:30;0.50;99.90
4279;DHT22;2153;47.744;10.580;2022-12-07T02:51:57;0.50;99.90
4279;DHT22;2153;47.744;10.580;2022-12-07T02:54:24;0.50;99.90
4279;DHT22;2153;47.744;10.580;2022-12-07T02:56:55;0.50;99.90
4279;DHT22;2153;47.744;10.580;2022-12-07T02:59:32;0.50;99.90
4279;DHT22;2153;47.744;10.580;2022-12-07T03:02:09;0.50;99.90
4279;DHT22;2153;47.744;10.580;2022-12-07T03:04:48;0.50;99.90
4279;DHT22;2153;47.744;10.580;2022-12-07T03:07:24;0.50;99.90
4279;DHT22;2153;47.744;10.580;2022-12-07T03:09:59;0.50;99.90
4279;DHT22;2153;47.744;10.580;2022-12-07T03:12:31;0.50;99.90
4279;DHT22;2153;47.744;10.580;2022-12-07T03:15:02;0.50;99.90
4279;DHT22;2153;47.744;10.580;2022-12-07T03:17:32;0.50;99.90
4279;DHT22;2153;47.744;10.580;2022-12-07T03:20:04;0.50;99.90
4279;DHT22;2153;47.744;10.580;2022-12-07T03:22:35;0.50;99.90
4279;DHT22;2153;47.744;10.580;2022-12-07T03:25:06;0.60;99.90
4279;DHT22;2153;47.744;10.580;2022-12-07T03:27:40;0.50;99.90
4279;DHT22;2153;47.744;10.580;2022-12-07T03:30:12;0.50;99.90
4279;DHT22;2153;47.744;10.580;2022-12-07T03:32:43;0.60;99.90
4279;DHT22;2153;47.744;10.580;2022-12-07T03:35:14;0.60;99.90
4279;DHT22;2153;47.744;10.580;2022-12-07T03:37:47;0.60;99.90
4279;DHT22;2153;47.744;10.580;2022-12-07T03:40:19;0.60;99.90
4279;DHT22;2153;47.744;10.580;2022-12-07T03:42:48;0.60;99.90
4279;DHT22;2153;47.744;10.580;2022-12-07T03:45:17;0.60;99.90
4279;DHT22;2153;47.744;10.580;2022-12-07T03:47:47;0.60;99.90
4279;DHT22;2153;47.744;10.580;2022-12-07T03:50:25;0.60;99.90
4279;DHT22;2153;47.744;10.580;2022-12-07T03:52:56;0.60;99.90
4279;DHT22;2153;47.744;10.580;2022-12-07T03:55:27;0.60;99.90
4279;DHT22;2153;47.744;10.580;2022-12-07T03:57:59;0.60;99.90
4279;DHT22;2153;47.744;10.580;2022-12-07T04:00:27;0.60;99.90
4279;DHT22;2153;47.744;10.580;2022-12-07T04:02:55;0.60;99.90
4279;DHT22;2153;47.744;10.580;2022-12-07T04:05:22;0.60;99.90
4279;DHT22;2153;47.744;10.580;2022-12-07T04:07:49;0.60;99.90
4279;DHT22;2153;47.744;10.580;2022-12-07T04:10:16;0.60;99.90
4279;DHT22;2153;47.744;10.580;2022-12-07T04:12:43;0.60;99.90
4279;DHT22;2153;47.744;10.580;2022-12-07T04:15:10;0.60;99.90
4279;DHT22;2153;47.744;10.580;2022-12-07T04:17:38;0.60;99.90
4279;DHT22;2153;47.744;10.580;2022-12-07T04:20:06;0.60;99.90
4279;DHT22;2153;47.744;10.580;2022-12-07T04:22:33;0.60;99.90
4279;DHT22;2153;47.744;10.580;2022-12-07T04:25:00;0.60;99.90
4279;DHT22;2153;47.744;10.580;2022-12-07T04:27:27;0.60;99.90
4279;DHT22;2153;47.744;10.580;2022-12-07T04:29:54;0.60;99.90
4279;DHT22;2153;47.744;10.580;2022-12-07T04:32:21;0.60;99.90
4279;DHT22;2153;47.744;10.580;2022-12-07T04:34:49;0.60;99.90
4279;DHT22;2153;47.744;10.580;2022-12-07T04:37:16;0.60;99.90
4279;DHT22;2153;47.744;10.580;2022-12-07T04:39:43;0.60;99.90
4279;DHT22;2153;47.744;10.580;2022-12-07T04:42:11;0.60;99.90
4279;DHT22;2153;47.744;10.580;2022-12-07T04:44:39;0.60;99.90
4279;DHT22;2153;47.744;10.580;2022-12-07T04:47:06;0.60;99.90
4279;DHT22;2153;47.744;10.580;2022-12-07T04:49:33;0.60;99.90
4279;DHT22;2153;47.744;10.580;2022-12-07T04:52:01;0.60;99.90
4279;DHT22;2153;47.744;10.580;2022-12-07T04:54:28;0.60;99.90
4279;DHT22;2153;47.744;10.580;2022-12-07T04:56:54;0.60;99.90
4279;DHT22;2153;47.744;10.580;2022-12-07T04:59:21;0.60;99.90
4279;DHT22;2153;47.744;10.580;2022-12-07T05:01:48;0.60;99.90
4279;DHT22;2153;47.744;10.580;2022-12-07T05:04:15;0.60;99.90
4279;DHT22;2153;47.744;10.580;2022-12-07T05:06:43;0.60;99.90
4279;DHT22;2153;47.744;10.580;2022-12-07T05:09:11;0.60;99.90
4279;DHT22;2153;47.744;10.580;2022-12-07T05:11:38;0.60;99.90
4279;DHT22;2153;47.744;10.580;2022-12-07T05:14:07;0.60;99.90
4279;DHT22;2153;47.744;10.580;2022-12-07T05:16:35;0.60;99.90
4279;DHT22;2153;47.744;10.580;2022-12-07T05:19:03;0.60;99.90
4279;DHT22;2153;47.744;10.580;2022-12-07T05:21:29;0.60;99.90
4279;DHT22;2153;47.744;10.580;2022-12-07T05:23:56;0.60;99.90
4279;DHT22;2153;47.744;10.580;2022-12-07T05:26:24;0.70;99.90
4279;DHT22;2153;47.744;10.580;2022-12-07T05:28:51;0.60;99.90
4279;DHT22;2153;47.744;10.580;2022-12-07T05:31:18;0.70;99.90
4279;DHT22;2153;47.744;10.580;2022-12-07T05:33:45;0.70;99.90
4279;DHT22;2153;47.744;10.580;2022-12-07T05:36:12;0.70;99.90
4279;DHT22;2153;47.744;10.580;2022-12-07T05:38:39;0.70;99.90
4279;DHT22;2153;47.744;10.580;2022-12-07T05:41:07;0.60;99.90
4279;DHT22;2153;47.744;10.580;2022-12-07T05:43:55;0.60;99.90
4279;DHT22;2153;47.744;10.580;2022-12-07T05:46:22;0.60;99.90
4279;DHT22;2153;47.744;10.580;2022-12-07T05:48:49;0.60;99.90
4279;DHT22;2153;47.744;10.580;2022-12-07T05:51:16;0.60;99.90
4279;DHT22;2153;47.744;10.580;2022-12-07T05:53:43;0.60;99.90
4279;DHT22;2153;47.744;10.580;2022-12-07T05:56:09;0.70;99.90
4279;DHT22;2153;47.744;10.580;2022-12-07T05:58:36;0.70;99.90
4279;DHT22;2153;47.744;10.580;2022-12-07T06:01:22;0.70;99.90
4279;DHT22;2153;47.744;10.580;2022-12-07T06:03:49;0.70;99.90
4279;DHT22;2153;47.744;10.580;2022-12-07T06:06:15;0.60;99.90
4279;DHT22;2153;47.744;10.580;2022-12-07T06:08:42;0.60;99.90
4279;DHT22;2153;47.744;10.580;2022-12-07T06:11:09;0.60;99.90
4279;DHT22;2153;47.744;10.580;2022-12-07T06:13:53;0.70;99.90
4279;DHT22;2153;47.744;10.580;2022-12-07T06:16:21;0.70;99.90
4279;DHT22;2153;47.744;10.580;2022-12-07T06:18:48;0.70;99.90
4279;DHT22;2153;47.744;10.580;2022-12-07T06:21:15;0.60;99.90
4279;DHT22;2153;47.744;10.580;2022-12-07T06:23:41;0.60;99.90
4279;DHT22;2153;47.744;10.580;2022-12-07T06:26:08;0.60;99.90
4279;DHT22;2153;47.744;10.580;2022-12-07T06:28:35;0.60;99.90
4279;DHT22;2153;47.744;10.580;2022-12-07T06:31:02;0.60;99.90
4279;DHT22;2153;47.744;10.580;2022-12-07T06:33:31;0.60;99.90
4279;DHT22;2153;47.744;10.580;2022-12-07T06:35:57;0.60;99.90
4279;DHT22;2153;47.744;10.580;2022-12-07T06:38:24;0.60;99.90
4279;DHT22;2153;47.744;10.580;2022-12-07T06:40:51;0.60;99.90
4279;DHT22;2153;47.744;10.580;2022-12-07T06:43:18;0.60;99.90
4279;DHT22;2153;47.744;10.580;2022-12-07T06:45:44;0.50;99.90
4279;DHT22;2153;47.744;10.580;2022-12-07T06:48:11;0.60;99.90
4279;DHT22;2153;47.744;10.580;2022-12-07T06:50:40;0.60;99.90
4279;DHT22;2153;47.744;10.580;2022-12-07T06:53:07;0.60;99.90
4279;DHT22;2153;47.744;10.580;2022-12-07T06:55:34;0.60;99.90
4279;DHT22;2153;47.744;10.580;2022-12-07T06:58:01;0.60;99.90
4279;DHT22;2153;47.744;10.580;2022-12-07T07:00:28;0.60;99.90
4279;DHT22;2153;47.744;10.580;2022-12-07T07:02:55;0.60;99.90
4279;DHT22;2153;47.744;10.580;2022-12-07T07:05:22;0.60;99.90
4279;DHT22;2153;47.744;10.580;2022-12-07T07:07:50;0.60;99.90
4279;DHT22;2153;47.744;10.580;2022-12-07T07:10:17;0.60;99.90
4279;DHT22;2153;47.744;10.580;2022-12-07T07:12:44;0.60;99.90
4279;DHT22;2153;47.744;10.580;2022-12-07T07:15:11;0.60;99.90
4279;DHT22;2153;47.744;10.580;2022-12-07T07:17:38;0.50;99.90
4279;DHT22;2153;47.744;10.580;2022-12-07T07:20:06;0.60;99.90
4279;DHT22;2153;47.744;10.580;2022-12-07T07:22:32;0.50;99.90
4279;DHT22;2153;47.744;10.580;2022-12-07T07:25:01;0.60;99.90
4279;DHT22;2153;47.744;10.580;2022-12-07T07:27:27;0.60;99.90
4279;DHT22;2153;47.744;10.580;2022-12-07T07:29:54;0.60;99.90
4279;DHT22;2153;47.744;10.580;2022-12-07T07:32:21;0.60;99.90
4279;DHT22;2153;47.744;10.580;2022-12-07T07:34:48;0.60;99.90
4279;DHT22;2153;47.744;10.580;2022-12-07T07:37:15;0.60;99.90
4279;DHT22;2153;47.744;10.580;2022-12-07T07:39:42;0.60;99.90
4279;DHT22;2153;47.744;10.580;2022-12-07T07:42:10;0.60;99.90
4279;DHT22;2153;47.744;10.580;2022-12-07T07:44:36;0.60;99.90
4279;DHT22;2153;47.744;10.580;2022-12-07T07:47:03;0.50;99.90
4279;DHT22;2153;47.744;10.580;2022-12-07T07:49:30;0.60;99.90
4279;DHT22;2153;47.744;10.580;2022-12-07T07:51:57;0.60;99.90
4279;DHT22;2153;47.744;10.580;2022-12-07T07:54:24;0.50;99.90
4279;DHT22;2153;47.744;10.580;2022-12-07T07:56:52;0.50;99.90
4279;DHT22;2153;47.744;10.580;2022-12-07T07:59:20;0.50;99.90
4279;DHT22;2153;47.744;10.580;2022-12-07T08:01:47;0.50;99.90
4279;DHT22;2153;47.744;10.580;2022-12-07T08:04:13;0.50;99.90
4279;DHT22;2153;47.744;10.580;2022-12-07T08:06:41;0.60;99.90
4279;DHT22;2153;47.744;10.580;2022-12-07T08:09:08;0.60;99.90
4279;DHT22;2153;47.744;10.580;2022-12-07T08:11:35;0.60;99.90
4279;DHT22;2153;47.744;10.580;2022-12-07T08:14:03;0.60;99.90
4279;DHT22;2153;47.744;10.580;2022-12-07T08:16:31;0.60;99.90
4279;DHT22;2153;47.744;10.580;2022-12-07T08:18:58;0.70;99.90
4279;DHT22;2153;47.744;10.580;2022-12-07T08:21:24;0.70;99.90
4279;DHT22;2153;47.744;10.580;2022-12-07T08:23:51;0.70;99.90
4279;DHT22;2153;47.744;10.580;2022-12-07T08:26:18;0.70;99.90
4279;DHT22;2153;47.744;10.580;2022-12-07T08:28:45;0.70;99.90
4279;DHT22;2153;47.744;10.580;2022-12-07T08:31:13;0.70;99.90
4279;DHT22;2153;47.744;10.580;2022-12-07T08:33:42;0.70;99.90
4279;DHT22;2153;47.744;10.580;2022-12-07T08:36:11;0.70;99.90
4279;DHT22;2153;47.744;10.580;2022-12-07T08:38:40;0.60;99.90
4279;DHT22;2153;47.744;10.580;2022-12-07T08:41:07;0.60;99.90
4279;DHT22;2153;47.744;10.580;2022-12-07T08:43:35;0.60;99.90
4279;DHT22;2153;47.744;10.580;2022-12-07T08:46:07;0.60;99.90
4279;DHT22;2153;47.744;10.580;2022-12-07T08:48:37;0.60;99.90
4279;DHT22;2153;47.744;10.580;2022-12-07T08:51:07;0.60;99.90
4279;DHT22;2153;47.744;10.580;2022-12-07T08:53:34;0.70;99.90
4279;DHT22;2153;47.744;10.580;2022-12-07T08:56:02;0.70;99.90
4279;DHT22;2153;47.744;10.580;2022-12-07T08:58:29;0.70;99.90
4279;DHT22;2153;47.744;10.580;2022-12-07T09:00:55;0.70;99.90
4279;DHT22;2153;47.744;10.580;2022-12-07T09:03:22;0.80;99.90
4279;DHT22;2153;47.744;10.580;2022-12-07T09:05:49;0.90;99.90
4279;DHT22;2153;47.744;10.580;2022-12-07T09:08:17;0.90;99.90
4279;DHT22;2153;47.744;10.580;2022-12-07T09:10:44;0.90;99.90
4279;DHT22;2153;47.744;10.580;2022-12-07T09:13:11;1.00;99.90
4279;DHT22;2153;47.744;10.580;2022-12-07T09:15:38;1.00;99.90
4279;DHT22;2153;47.744;10.580;2022-12-07T09:18:05;1.10;99.90
4279;DHT22;2153;47.744;10.580;2022-12-07T09:20:32;1.00;99.90
4279;DHT22;2153;47.744;10.580;2022-12-07T09:22:59;1.00;99.90
4279;DHT22;2153;47.744;10.580;2022-12-07T09:25:27;0.90;99.90
4279;DHT22;2153;47.744;10.580;2022-12-07T09:27:58;0.90;99.90
4279;DHT22;2153;47.744;10.580;2022-12-07T09:30:26;0.90;99.90
4279;DHT22;2153;47.744;10.580;2022-12-07T09:32:53;0.90;99.90
4279;DHT22;2153;47.744;10.580;2022-12-07T09:35:21;0.90;99.90
4279;DHT22;2153;47.744;10.580;2022-12-07T09:37:48;1.10;99.90
4279;DHT22;2153;47.744;10.580;2022-12-07T09:40:15;1.10;99.90
4279;DHT22;2153;47.744;10.580;2022-12-07T09:42:47;1.10;99.90
4279;DHT22;2153;47.744;10.580;2022-12-07T09:45:15;1.10;99.90
4279;DHT22;2153;47.744;10.580;2022-12-07T09:47:43;1.20;99.90
4279;DHT22;2153;47.744;10.580;2022-12-07T09:50:14;1.20;99.90
4279;DHT22;2153;47.744;10.580;2022-12-07T09:52:43;1.10;99.90
4279;DHT22;2153;47.744;10.580;2022-12-07T09:55:12;1.10;99.90
4279;DHT22;2153;47.744;10.580;2022-12-07T09:57:40;1.20;99.90
4279;DHT22;2153;47.744;10.580;2022-12-07T10:00:14;1.20;99.90
4279;DHT22;2153;47.744;10.580;2022-12-07T10:02:43;1.30;99.90
4279;DHT22;2153;47.744;10.580;2022-12-07T10:05:14;1.30;99.90
4279;DHT22;2153;47.744;10.580;2022-12-07T10:07:41;1.30;99.90
4279;DHT22;2153;47.744;10.580;2022-12-07T10:10:15;1.40;99.90
4279;DHT22;2153;47.744;10.580;2022-12-07T10:12:58;1.40;99.90
4279;DHT22;2153;47.744;10.580;2022-12-07T10:18:21;1.40;99.90
4279;DHT22;2153;47.744;10.580;2022-12-07T10:21:00;1.40;99.90
4279;DHT22;2153;47.744;10.580;2022-12-07T10:23:27;1.50;99.90
4279;DHT22;2153;47.744;10.580;2022-12-07T10:25:54;1.50;99.90
4279;DHT22;2153;47.744;10.580;2022-12-07T10:28:21;1.50;99.90
4279;DHT22;2153;47.744;10.580;2022-12-07T10:30:51;1.50;99.90
4279;DHT22;2153;47.744;10.580;2022-12-07T10:33:30;1.60;99.90
4279;DHT22;2153;47.744;10.580;2022-12-07T10:35:58;1.60;99.90
4279;DHT22;2153;47.744;10.580;2022-12-07T10:38:27;1.60;99.90
4279;DHT22;2153;47.744;10.580;2022-12-07T10:41:06;1.60;99.90
4279;DHT22;2153;47.744;10.580;2022-12-07T10:43:33;1.60;99.90
4279;DHT22;2153;47.744;10.580;2022-12-07T10:46:26;1.60;99.90
4279;DHT22;2153;47.744;10.580;2022-12-07T10:49:05;1.70;99.90
4279;DHT22;2153;47.744;10.580;2022-12-07T10:51:37;1.70;99.90
4279;DHT22;2153;47.744;10.580;2022-12-07T10:54:12;1.80;99.90
4279;DHT22;2153;47.744;10.580;2022-12-07T10:56:56;1.90;99.90
4279;DHT22;2153;47.744;10.580;2022-12-07T10:59:51;1.90;99.90
4279;DHT22;2153;47.744;10.580;2022-12-07T11:02:36;1.90;99.90
4279;DHT22;2153;47.744;10.580;2022-12-07T11:05:17;2.00;99.90
4279;DHT22;2153;47.744;10.580;2022-12-07T11:07:57;2.00;99.90
4279;DHT22;2153;47.744;10.580;2022-12-07T11:10:33;1.90;99.90
4279;DHT22;2153;47.744;10.580;2022-12-07T11:13:19;1.90;99.90
4279;DHT22;2153;47.744;10.580;2022-12-07T11:16:02;1.90;99.90
4279;DHT22;2153;47.744;10.580;2022-12-07T11:18:38;2.00;99.90
4279;DHT22;2153;47.744;10.580;2022-12-07T11:21:14;2.00;99.90
4279;DHT22;2153;47.744;10.580;2022-12-07T11:23:49;2.00;99.90
4279;DHT22;2153;47.744;10.580;2022-12-07T11:26:31;1.90;99.90
4279;DHT22;2153;47.744;10.580;2022-12-07T11:29:27;1.90;99.90
4279;DHT22;2153;47.744;10.580;2022-12-07T11:32:07;1.90;99.90
4279;DHT22;2153;47.744;10.580;2022-12-07T11:34:42;1.70;99.90
4279;DHT22;2153;47.744;10.580;2022-12-07T11:37:17;1.70;99.90
4279;DHT22;2153;47.744;10.580;2022-12-07T11:39:49;1.70;99.90
4279;DHT22;2153;47.744;10.580;2022-12-07T11:42:22;1.80;99.90
4279;DHT22;2153;47.744;10.580;2022-12-07T11:44:53;1.80;99.90
4279;DHT22;2153;47.744;10.580;2022-12-07T11:47:28;1.70;99.90
4279;DHT22;2153;47.744;10.580;2022-12-07T11:50:03;1.70;99.90
4279;DHT22;2153;47.744;10.580;2022-12-07T11:52:41;1.60;99.90
4279;DHT22;2153;47.744;10.580;2022-12-07T11:55:19;1.60;99.90
4279;DHT22;2153;47.744;10.580;2022-12-07T11:57:51;1.60;99.90
4279;DHT22;2153;47.744;10.580;2022-12-07T12:00:19;1.80;99.90
4279;DHT22;2153;47.744;10.580;2022-12-07T12:02:51;1.90;99.90
4279;DHT22;2153;47.744;10.580;2022-12-07T12:05:22;1.90;99.90
4279;DHT22;2153;47.744;10.580;2022-12-07T12:07:58;1.90;99.90
4279;DHT22;2153;47.744;10.580;2022-12-07T12:10:35;1.90;99.90
4279;DHT22;2153;47.744;10.580;2022-12-07T12:13:17;2.00;99.90
4279;DHT22;2153;47.744;10.580;2022-12-07T12:18:42;2.20;99.90
4279;DHT22;2153;47.744;10.580;2022-12-07T12:21:13;2.20;99.90
4279;DHT22;2153;47.744;10.580;2022-12-07T12:23:45;2.20;99.90
4279;DHT22;2153;47.744;10.580;2022-12-07T12:26:17;2.30;99.90
4279;DHT22;2153;47.744;10.580;2022-12-07T12:28:52;2.40;99.90
4279;DHT22;2153;47.744;10.580;2022-12-07T12:31:32;2.50;99.90
4279;DHT22;2153;47.744;10.580;2022-12-07T12:34:02;2.50;99.90
4279;DHT22;2153;47.744;10.580;2022-12-07T12:36:44;2.50;99.90
4279;DHT22;2153;47.744;10.580;2022-12-07T12:39:14;2.50;99.90
4279;DHT22;2153;47.744;10.580;2022-12-07T12:41:55;2.40;99.90
4279;DHT22;2153;47.744;10.580;2022-12-07T12:47:41;2.10;99.90
4279;DHT22;2153;47.744;10.580;2022-12-07T12:50:19;2.00;99.90
4279;DHT22;2153;47.744;10.580;2022-12-07T12:56:08;1.90;99.90
4279;DHT22;2153;47.744;10.580;2022-12-07T12:58:45;1.90;99.90
4279;DHT22;2153;47.744;10.580;2022-12-07T13:01:41;2.10;99.90
4279;DHT22;2153;47.744;10.580;2022-12-07T13:06:58;2.30;99.90
4279;DHT22;2153;47.744;10.580;2022-12-07T13:09:28;2.40;99.90
4279;DHT22;2153;47.744;10.580;2022-12-07T13:12:01;2.40;99.90
4279;DHT22;2153;47.744;10.580;2022-12-07T13:14:57;2.40;99.90
4279;DHT22;2153;47.744;10.580;2022-12-07T13:18:02;2.40;99.90
4279;DHT22;2153;47.744;10.580;2022-12-07T13:20:49;2.40;99.90
4279;DHT22;2153;47.744;10.580;2022-12-07T13:23:26;2.40;99.90
4279;DHT22;2153;47.744;10.580;2022-12-07T13:26:01;2.50;99.90
4279;DHT22;2153;47.744;10.580;2022-12-07T13:28:36;2.60;99.90
4279;DHT22;2153;47.744;10.580;2022-12-07T13:33:53;2.60;99.90
4279;DHT22;2153;47.744;10.580;2022-12-07T13:36:22;2.70;99.90
4279;DHT22;2153;47.744;10.580;2022-12-07T13:38:52;2.70;99.90
4279;DHT22;2153;47.744;10.580;2022-12-07T13:41:21;2.70;99.90
4279;DHT22;2153;47.744;10.580;2022-12-07T13:43:52;2.70;99.90
4279;DHT22;2153;47.744;10.580;2022-12-07T13:46:25;2.70;99.90
4279;DHT22;2153;47.744;10.580;2022-12-07T13:48:53;2.70;99.90
4279;DHT22;2153;47.744;10.580;2022-12-07T13:51:23;2.70;99.90
4279;DHT22;2153;47.744;10.580;2022-12-07T13:53:52;2.70;99.90
4279;DHT22;2153;47.744;10.580;2022-12-07T13:56:21;2.60;99.90
4279;DHT22;2153;47.744;10.580;2022-12-07T13:58:50;2.60;99.90
4279;DHT22;2153;47.744;10.580;2022-12-07T14:01:17;2.60;99.90
4279;DHT22;2153;47.744;10.580;2022-12-07T14:03:44;2.60;99.90
4279;DHT22;2153;47.744;10.580;2022-12-07T14:06:19;2.60;99.90
4279;DHT22;2153;47.744;10.580;2022-12-07T14:08:47;2.50;99.90
4279;DHT22;2153;47.744;10.580;2022-12-07T14:11:17;2.50;99.90
4279;DHT22;2153;47.744;10.580;2022-12-07T14:13:54;2.50;99.90
4279;DHT22;2153;47.744;10.580;2022-12-07T14:16:26;2.40;99.90
4279;DHT22;2153;47.744;10.580;2022-12-07T14:18:54;2.50;99.90
4279;DHT22;2153;47.744;10.580;2022-12-07T14:21:23;2.40;99.90
4279;DHT22;2153;47.744;10.580;2022-12-07T14:24:16;2.40;99.90
4279;DHT22;2153;47.744;10.580;2022-12-07T14:26:46;2.30;99.90
4279;DHT22;2153;47.744;10.580;2022-12-07T14:29:22;2.30;99.90
4279;DHT22;2153;47.744;10.580;2022-12-07T14:31:56;2.30;99.90
4279;DHT22;2153;47.744;10.580;2022-12-07T14:34:24;2.20;99.90
4279;DHT22;2153;47.744;10.580;2022-12-07T14:36:51;2.20;99.90
4279;DHT22;2153;47.744;10.580;2022-12-07T14:39:18;2.10;99.90
4279;DHT22;2153;47.744;10.580;2022-12-07T14:41:45;2.20;99.90
4279;DHT22;2153;47.744;10.580;2022-12-07T14:44:19;2.20;99.90
4279;DHT22;2153;47.744;10.580;2022-12-07T14:46:48;2.10;99.90
4279;DHT22;2153;47.744;10.580;2022-12-07T14:49:16;2.10;99.90
4279;DHT22;2153;47.744;10.580;2022-12-07T14:51:44;2.00;99.90
4279;DHT22;2153;47.744;10.580;2022-12-07T14:54:16;2.00;99.90
4279;DHT22;2153;47.744;10.580;2022-12-07T14:56:43;2.00;99.90
4279;DHT22;2153;47.744;10.580;2022-12-07T14:59:11;1.90;99.90
4279;DHT22;2153;47.744;10.580;2022-12-07T15:01:38;1.90;99.90
4279;DHT22;2153;47.744;10.580;2022-12-07T15:04:06;1.90;99.90
4279;DHT22;2153;47.744;10.580;2022-12-07T15:06:33;1.80;99.90
4279;DHT22;2153;47.744;10.580;2022-12-07T15:09:00;1.80;99.90
4279;DHT22;2153;47.744;10.580;2022-12-07T15:11:27;1.70;99.90
4279;DHT22;2153;47.744;10.580;2022-12-07T15:13:54;1.70;99.90
4279;DHT22;2153;47.744;10.580;2022-12-07T15:16:38;1.70;99.90
4279;DHT22;2153;47.744;10.580;2022-12-07T15:19:12;1.60;99.90
4279;DHT22;2153;47.744;10.580;2022-12-07T15:21:40;1.50;99.90
4279;DHT22;2153;47.744;10.580;2022-12-07T15:24:09;1.50;99.90
4279;DHT22;2153;47.744;10.580;2022-12-07T15:26:36;1.50;99.90
4279;DHT22;2153;47.744;10.580;2022-12-07T15:29:03;1.60;99.90
4279;DHT22;2153;47.744;10.580;2022-12-07T15:31:30;1.60;99.90
4279;DHT22;2153;47.744;10.580;2022-12-07T15:33:56;1.50;99.90
4279;DHT22;2153;47.744;10.580;2022-12-07T15:36:27;1.40;99.90
4279;DHT22;2153;47.744;10.580;2022-12-07T15:38:54;1.40;99.90
4279;DHT22;2153;47.744;10.580;2022-12-07T15:41:21;1.40;99.90
4279;DHT22;2153;47.744;10.580;2022-12-07T15:43:48;1.40;99.90
4279;DHT22;2153;47.744;10.580;2022-12-07T15:46:33;1.40;99.90
4279;DHT22;2153;47.744;10.580;2022-12-07T15:49:00;1.40;99.90
4279;DHT22;2153;47.744;10.580;2022-12-07T15:51:29;1.40;99.90
4279;DHT22;2153;47.744;10.580;2022-12-07T15:53:57;1.40;99.90
4279;DHT22;2153;47.744;10.580;2022-12-07T15:56:24;1.40;99.90
4279;DHT22;2153;47.744;10.580;2022-12-07T15:58:51;1.30;99.90
4279;DHT22;2153;47.744;10.580;2022-12-07T16:01:19;1.30;99.90
4279;DHT22;2153;47.744;10.580;2022-12-07T16:03:46;1.30;99.90
4279;DHT22;2153;47.744;10.580;2022-12-07T16:06:15;1.20;99.90
4279;DHT22;2153;47.744;10.580;2022-12-07T16:08:44;1.20;99.90
4279;DHT22;2153;47.744;10.580;2022-12-07T16:11:11;1.20;99.90
4279;DHT22;2153;47.744;10.580;2022-12-07T16:13:38;1.20;99.90
4279;DHT22;2153;47.744;10.580;2022-12-07T16:16:07;1.20;99.90
4279;DHT22;2153;47.744;10.580;2022-12-07T16:18:35;1.20;99.90
4279;DHT22;2153;47.744;10.580;2022-12-07T16:21:02;1.20;99.90
4279;DHT22;2153;47.744;10.580;2022-12-07T16:23:29;1.20;99.90
4279;DHT22;2153;47.744;10.580;2022-12-07T16:26:05;1.20;99.90
4279;DHT22;2153;47.744;10.580;2022-12-07T16:28:32;1.20;99.90
4279;DHT22;2153;47.744;10.580;2022-12-07T16:31:07;1.20;99.90
4279;DHT22;2153;47.744;10.580;2022-12-07T16:33:35;1.10;99.90
4279;DHT22;2153;47.744;10.580;2022-12-07T16:36:06;1.10;99.90
4279;DHT22;2153;47.744;10.580;2022-12-07T16:38:34;1.10;99.90
4279;DHT22;2153;47.744;10.580;2022-12-07T16:41:01;1.10;99.90
4279;DHT22;2153;47.744;10.580;2022-12-07T16:43:29;1.00;99.90
4279;DHT22;2153;47.744;10.580;2022-12-07T16:45:56;1.00;99.90